Weather History for KPPO - March, 2013

Change the Weather History Date:

Tuesday, March 19, 2013

  Actual Average (KVPZ) Record (KVPZ)
Temperature  
Mean Temperature 26 °F 39 °F  
Max Temperature 34 °F 48 °F 78 °F (1921)
Min Temperature 18 °F 30 °F 4 °F (1934)
Degree Days  
Heating Degree Days 39 26  
Month to date heating degree days 560  
Since 1 July heating degree days 5292  
Cooling Degree Days 0 0  
Month to date cooling degree days 0  
Year to date cooling degree days 0  
Moisture  
Dew Point 12 °F    
Average Humidity 57    
Maximum Humidity 74    
Minimum Humidity 38    
Precipitation  
Precipitation 0.00 in 0.07 in 2.05 in (1898)
Month to date precipitation 1.41  
Year to date precipitation 4.58  
Sea Level Pressure  
Sea Level Pressure 29.92 in    
Wind  
Wind Speed 20 mph (West)    
Max Wind Speed 30 mph    
Max Gust Speed 39 mph    
Visibility 10 miles    
Events Snow    
T = Trace of Precipitation, MM = Missing Value Source: NWS Daily Summary

Daily Weather History Graph

Daily Weather History Graph

Search for Another Location

Airport or City:

Trip Planner

Search our weather history database for the weather conditions in past years. The results will help you decide how hot, cold, wet, or windy it might be!

Date:

Astronomy

Mar. 19, 2013 Rise Set
Actual Time 6:51 AM CDT 6:58 PM CDT
Civil Twilight 6:23 AM CDT 7:25 PM CDT
Nautical Twilight 5:51 AM CDT 7:58 PM CDT
Astronomical Twilight 5:18 AM CDT 8:31 PM CDT
Moon 11:37 AM CDT (3/19) 1:49 AM CDT (3/19)
Length of Visible Light 13h 02m
Length of Day
12h 06m
Waxing Crescent, 50% of the Moon is Illuminated
Mar 19
Waxing Crescent
Mar 19
First Quarter
Mar 27
Full
Apr 2
Last Quarter
Apr 10
New

Hourly Weather History & Observations

Time (CDT) Temp. Windchill Dew Point Humidity Pressure Visibility Wind Dir Wind Speed Gust Speed Precip Events Conditions
12:15 AM 23.4 °F 7.4 °F 13.1 °F 65% 29.79 in 10.0 mi West 24.2 mph 29.9 mph N/A   Overcast
12:35 AM 23.0 °F 7.6 °F 12.9 °F 65% 29.79 in 10.0 mi West 21.9 mph 32.2 mph N/A   Overcast
12:55 AM 23.0 °F 10.1 °F 13.8 °F 68% 29.79 in 10.0 mi West 15.0 mph 25.3 mph N/A Snow Light Snow
1:15 AM 22.6 °F 7.9 °F 14.7 °F 72% 29.79 in 7.0 mi West 19.6 mph 25.3 mph N/A Snow Light Snow
1:35 AM 22.1 °F 8.0 °F 14.4 °F 72% 29.79 in 5.0 mi West 17.3 mph 23.0 mph N/A Snow Light Snow
1:55 AM 21.6 °F 6.5 °F 10.9 °F 64% 29.80 in 10.0 mi West 19.6 mph 28.8 mph N/A   Overcast
2:15 AM 21.0 °F 7.6 °F 12.0 °F 68% 29.80 in 10.0 mi West 15.0 mph 23.0 mph N/A   Mostly Cloudy
2:35 AM 20.8 °F 5.5 °F 10.8 °F 65% 29.81 in 10.0 mi West 19.6 mph 28.8 mph N/A   Overcast
2:55 AM 20.8 °F 7.3 °F 11.3 °F 67% 29.79 in 10.0 mi West 15.0 mph 24.2 mph N/A   Overcast
3:15 AM 21.0 °F 5.7 °F 11.8 °F 68% 29.79 in 10.0 mi West 19.6 mph 24.2 mph N/A   Mostly Cloudy
3:35 AM 20.7 °F 6.1 °F 11.3 °F 67% 29.79 in 10.0 mi West 17.3 mph 31.1 mph N/A   Mostly Cloudy
3:55 AM 20.8 °F 6.8 °F 12.0 °F 69% 29.79 in 10.0 mi West 16.1 mph 21.9 mph N/A Snow Light Snow
4:15 AM 20.8 °F 7.9 °F 12.6 °F 70% 29.81 in 10.0 mi West 13.8 mph 21.9 mph N/A Snow Light Snow
4:35 AM 20.8 °F 5.9 °F 12.9 °F 71% 29.82 in 7.0 mi West 18.4 mph 24.2 mph N/A Snow Light Snow
4:55 AM 20.1 °F 5.0 °F 11.5 °F 69% 29.82 in 7.0 mi West 18.4 mph 26.5 mph N/A   Overcast
5:15 AM 19.9 °F 4.8 °F 11.1 °F 69% 29.83 in 10.0 mi WSW 18.4 mph 27.6 mph N/A Snow Light Snow
5:35 AM 19.9 °F 6.7 °F 11.7 °F 70% 29.83 in 7.0 mi WSW 13.8 mph 26.5 mph N/A Snow Light Snow
5:55 AM 19.4 °F 5.0 °F 12.2 °F 74% 29.83 in 7.0 mi West 16.1 mph 25.3 mph N/A Snow Light Snow
6:15 AM 19.4 °F 5.5 °F 12.2 °F 74% 29.84 in 5.0 mi WSW 15.0 mph 24.2 mph N/A Snow Light Snow
6:55 AM 19.0 °F 4.0 °F 11.3 °F 72% 29.85 in 10.0 mi West 17.3 mph 25.3 mph N/A Snow Light Snow
7:15 AM 19.0 °F 3.6 °F 11.7 °F 73% 29.84 in 7.0 mi West 18.4 mph 26.5 mph N/A Snow Light Snow
7:35 AM 18.9 °F 2.9 °F 9.5 °F 67% 29.85 in 10.0 mi West 19.6 mph 32.2 mph N/A   Scattered Clouds
7:55 AM 19.4 °F 5.0 °F 11.1 °F 70% 29.85 in 10.0 mi West 16.1 mph 26.5 mph N/A Snow Light Snow
8:15 AM 19.4 °F 2.5 °F 11.5 °F 71% 29.85 in 5.0 mi West 23.0 mph 31.1 mph N/A Snow Light Snow
8:35 AM 20.1 °F 3.4 °F 10.4 °F 66% 29.86 in 10.0 mi West 23.0 mph 32.2 mph N/A   Mostly Cloudy
8:55 AM 20.1 °F 3.8 °F 10.2 °F 66% 29.86 in 10.0 mi West 21.9 mph 32.2 mph N/A   Mostly Cloudy
9:15 AM 21.2 °F 4.2 °F 10.6 °F 64% 29.87 in 10.0 mi West 25.3 mph 33.4 mph N/A   Mostly Cloudy
9:35 AM 21.2 °F 5.6 °F 11.1 °F 65% 29.87 in 10.0 mi WSW 20.7 mph 31.1 mph N/A   Scattered Clouds
9:55 AM 22.6 °F 6.8 °F 11.1 °F 61% 29.88 in 10.0 mi West 23.0 mph 33.4 mph N/A   Scattered Clouds
10:15 AM 23.5 °F 8.0 °F 11.5 °F 60% 29.88 in 10.0 mi West 23.0 mph 28.8 mph N/A   Scattered Clouds
10:35 AM 23.7 °F 8.5 °F 10.9 °F 58% 29.88 in 10.0 mi West 21.9 mph 29.9 mph N/A   Clear
10:55 AM 24.8 °F 9.6 °F 11.5 °F 57% 29.89 in 10.0 mi West 23.0 mph 31.1 mph N/A   Clear
11:15 AM 25.5 °F 10.6 °F 11.5 °F 55% 29.90 in 10.0 mi West 23.0 mph 31.1 mph N/A   Scattered Clouds
11:35 AM 26.8 °F 11.4 °F 12.6 °F 55% 29.91 in 10.0 mi West 26.5 mph 31.1 mph N/A   Scattered Clouds
11:55 AM 27.9 °F 14.4 °F 13.3 °F 54% 29.91 in 10.0 mi West 20.7 mph 27.6 mph N/A   Scattered Clouds
12:15 PM 28.2 °F 13.3 °F 12.2 °F 51% 29.92 in 10.0 mi West 26.5 mph 39.1 mph N/A   Clear
12:35 PM 29.1 °F 14.8 °F 12.6 °F 50% 29.92 in 10.0 mi West 25.3 mph 33.4 mph N/A   Clear
12:55 PM 29.8 °F 14.9 °F 12.6 °F 49% 29.93 in 10.0 mi West 28.8 mph 39.1 mph N/A   Clear
1:15 PM 30.2 °F 15.2 °F 12.7 °F 48% 29.94 in 10.0 mi West 29.9 mph 34.5 mph N/A   Clear
1:35 PM 31.5 °F 19.8 °F 13.3 °F 47% 29.94 in 10.0 mi West 18.4 mph 31.1 mph N/A   Clear
1:55 PM 31.3 °F 17.4 °F 12.6 °F 46% 29.95 in 10.0 mi West 26.5 mph 32.2 mph N/A   Clear
2:15 PM 31.6 °F 18.1 °F 12.4 °F 45% 29.94 in 10.0 mi West 25.3 mph 33.4 mph N/A   Clear
2:35 PM 32.0 °F 20.1 °F 12.6 °F 45% 29.95 in 10.0 mi West 19.6 mph 35.7 mph N/A   Clear
2:55 PM 32.9 °F 21.0 °F 12.7 °F 43% 29.95 in 10.0 mi West 20.7 mph 35.7 mph N/A   Clear
3:15 PM 32.9 °F 21.6 °F 12.2 °F 42% 29.96 in 10.0 mi West 18.4 mph 28.8 mph N/A   Clear
3:35 PM 33.6 °F 21.9 °F 12.9 °F 43% 29.96 in 10.0 mi West 20.7 mph 31.1 mph N/A   Clear
3:55 PM 34.2 °F 21.8 °F 13.6 °F 43% 29.97 in 10.0 mi West 24.2 mph 33.4 mph N/A   Clear
4:15 PM 33.3 °F 22.1 °F 11.5 °F 41% 29.97 in 10.0 mi West 18.4 mph 25.3 mph N/A   Clear
4:35 PM 33.8 °F 21.0 °F 10.8 °F 38% 29.97 in 10.0 mi West 25.3 mph 33.4 mph N/A   Clear
4:55 PM 34.0 °F 21.3 °F 13.1 °F 42% 29.98 in 10.0 mi West 25.3 mph 33.4 mph N/A   Clear
5:15 PM 33.8 °F 21.6 °F 11.7 °F 40% 29.98 in 10.0 mi West 23.0 mph 32.2 mph N/A   Clear
5:35 PM 34.0 °F 23.0 °F 12.0 °F 40% 29.99 in 10.0 mi West 18.4 mph 26.5 mph N/A   Clear
5:55 PM 33.3 °F 21.5 °F 11.3 °F 40% 29.99 in 10.0 mi West 20.7 mph 31.1 mph N/A   Clear
6:15 PM 32.9 °F 22.0 °F 12.0 °F 42% 29.99 in 10.0 mi West 17.3 mph 24.2 mph N/A   Clear
6:35 PM 32.2 °F 21.8 °F 12.0 °F 43% 30.00 in 10.0 mi West 15.0 mph 25.3 mph N/A   Clear
6:55 PM 32.0 °F 22.1 °F 11.3 °F 42% 30.01 in 10.0 mi West 13.8 mph 24.2 mph N/A   Clear
7:15 PM 31.5 °F 20.9 °F 12.4 °F 45% 30.02 in 10.0 mi West 15.0 mph 24.2 mph N/A   Clear
7:35 PM 31.1 °F 20.5 °F 13.3 °F 48% 30.02 in 10.0 mi West 15.0 mph 23.0 mph N/A   Scattered Clouds
7:55 PM 30.2 °F 18.9 °F 14.5 °F 52% 30.02 in 10.0 mi West 16.1 mph 24.2 mph N/A   Scattered Clouds
8:15 PM 29.8 °F 18.4 °F 14.9 °F 54% 30.03 in 10.0 mi West 16.1 mph 23.0 mph N/A   Scattered Clouds
8:35 PM 29.3 °F 18.2 °F 14.9 °F 55% 30.03 in 10.0 mi West 15.0 mph 24.2 mph N/A   Scattered Clouds
8:55 PM 28.9 °F 16.9 °F 14.9 °F 56% 30.04 in 10.0 mi West 17.3 mph 21.9 mph N/A   Scattered Clouds
9:15 PM 28.8 °F 17.0 °F 13.8 °F 54% 30.04 in 10.0 mi West 16.1 mph 23.0 mph N/A   Mostly Cloudy
9:35 PM 28.4 °F 17.5 °F 14.2 °F 55% 30.04 in 10.0 mi West 13.8 mph 21.9 mph N/A   Mostly Cloudy
9:55 PM 27.9 °F 16.3 °F 14.9 °F 58% 30.04 in 10.0 mi West 15.0 mph - N/A   Mostly Cloudy
10:15 PM 27.5 °F 16.8 °F 14.2 °F 57% 30.05 in 10.0 mi West 12.7 mph 19.6 mph N/A   Mostly Cloudy
10:35 PM 27.1 °F 16.9 °F 14.7 °F 60% 30.05 in 10.0 mi West 11.5 mph 18.4 mph N/A   Mostly Cloudy
10:55 PM 26.8 °F 16.5 °F 13.8 °F 58% 30.05 in 10.0 mi West 11.5 mph - N/A   Overcast
11:15 PM 26.6 °F 16.2 °F 13.3 °F 57% 30.05 in 10.0 mi West 11.5 mph 18.4 mph N/A   Overcast
11:35 PM 26.4 °F 15.5 °F 13.3 °F 58% 30.05 in 10.0 mi West 12.7 mph 19.6 mph N/A   Overcast
11:55 PM 25.9 °F 13.8 °F 13.1 °F 58% 30.05 in 10.0 mi West 15.0 mph - N/A   Overcast